createdAt,value
2019-03-24T00:04:39.224Z,86.27
2019-03-24T00:09:41.678Z,97.30
2019-03-24T00:14:44.085Z,86.50
2019-03-24T00:19:46.436Z,95.87
2019-03-24T00:24:48.847Z,95.77
2019-03-24T00:29:55.165Z,88.43
2019-03-24T00:34:57.557Z,95.87
2019-03-24T00:40:00.006Z,81.93
2019-03-24T00:45:03.328Z,89.43
2019-03-24T00:50:06.318Z,88.73
2019-03-24T00:55:09.004Z,87.50
2019-03-24T01:00:12.553Z,89.43
2019-03-24T01:05:15.009Z,90.80
2019-03-24T01:10:17.397Z,87.63
2019-03-24T01:15:19.784Z,89.77
2019-03-24T01:20:22.343Z,82.33
2019-03-24T01:25:24.700Z,80.23
2019-03-24T01:30:27.095Z,73.50
2019-03-24T01:35:29.470Z,72.10
2019-03-24T01:40:32.097Z,66.53
2019-03-24T01:45:34.558Z,71.10
2019-03-24T01:50:37.002Z,74.00
2019-03-24T01:55:39.607Z,59.33
2019-03-24T02:00:42.210Z,51.10
2019-03-24T02:05:44.668Z,45.03
2019-03-24T02:16:10.663Z,36.97
2019-03-24T02:21:13.009Z,43.97
2019-03-24T02:26:15.397Z,38.87
2019-03-24T02:31:17.768Z,39.43
2019-03-24T02:36:20.319Z,34.63
2019-03-24T02:41:22.679Z,35.60
2019-03-24T02:46:25.414Z,33.93
2019-03-24T02:51:27.810Z,35.27
2019-03-24T02:56:30.333Z,41.10
2019-03-24T03:01:32.706Z,39.20
2019-03-24T03:06:35.078Z,34.33
2019-03-24T03:11:37.438Z,34.70
2019-03-24T03:16:39.806Z,41.33
2019-03-24T03:21:42.181Z,30.67
2019-03-24T03:26:44.541Z,40.27
2019-03-24T03:31:46.909Z,37.97
2019-03-24T03:36:49.284Z,35.40
2019-03-24T03:41:51.764Z,40.20
2019-03-24T03:46:54.312Z,39.67
2019-03-24T03:51:56.773Z,34.93
2019-03-24T03:56:59.139Z,41.57
2019-03-24T04:02:01.551Z,39.40
2019-03-24T04:07:03.947Z,34.53
2019-03-24T04:12:06.424Z,45.33
2019-03-24T04:17:08.896Z,35.57
2019-03-24T04:22:11.253Z,35.23
2019-03-24T04:27:13.671Z,37.70
2019-03-24T04:32:17.033Z,28.33
2019-03-24T04:37:19.395Z,37.30
2019-03-24T04:42:22.149Z,30.97
2019-03-24T04:47:24.521Z,31.93
2019-03-24T04:52:26.891Z,31.67
2019-03-24T04:57:29.687Z,34.73
2019-03-24T05:02:32.204Z,35.73
2019-03-24T05:07:35.254Z,40.27
2019-03-24T05:12:37.650Z,38.10
2019-03-24T05:17:41.207Z,34.63
2019-03-24T05:22:43.594Z,30.13
2019-03-24T05:27:46.007Z,35.43
2019-03-24T05:32:48.359Z,33.50
2019-03-24T05:37:50.725Z,31.93
2019-03-24T05:42:53.147Z,40.97
2019-03-24T05:47:55.699Z,32.93
2019-03-24T05:52:58.868Z,30.00
2019-03-24T05:58:01.776Z,34.67
2019-03-24T06:03:04.139Z,38.00
2019-03-24T06:08:06.500Z,36.83
2019-03-24T06:13:08.890Z,32.80
2019-03-24T06:18:11.548Z,34.20
2019-03-24T06:23:13.915Z,32.00
2019-03-24T06:28:16.349Z,35.30
2019-03-24T06:33:18.720Z,36.93
2019-03-24T06:38:27.060Z,30.67
2019-03-24T06:43:29.461Z,32.07
2019-03-24T06:48:31.804Z,30.00
2019-03-24T06:53:34.164Z,33.43
2019-03-24T06:58:36.880Z,38.73
2019-03-24T07:03:39.240Z,33.63
2019-03-24T07:08:41.594Z,37.43
2019-03-24T07:13:43.967Z,35.20
2019-03-24T07:18:46.346Z,34.30
2019-03-24T07:23:48.795Z,30.77
2019-03-24T07:28:51.383Z,34.17
2019-03-24T07:33:53.864Z,33.67
2019-03-24T07:38:56.299Z,35.70
2019-03-24T07:43:58.780Z,29.93
2019-03-24T07:49:01.251Z,32.37
2019-03-24T07:54:03.810Z,30.40
2019-03-24T07:59:06.324Z,34.63
2019-03-24T08:04:08.675Z,31.30
2019-03-24T08:09:11.125Z,30.70
2019-03-24T08:14:13.991Z,28.93
2019-03-24T08:19:16.354Z,34.47
2019-03-24T08:24:18.702Z,41.17
2019-03-24T08:29:24.453Z,38.57
2019-03-24T08:34:26.795Z,76.80
2019-03-24T08:39:29.183Z,54.77
2019-03-24T08:44:31.914Z,47.83
2019-03-24T08:49:34.264Z,30.10
2019-03-24T08:54:36.620Z,35.13
2019-03-24T08:59:39.000Z,33.03
2019-03-24T09:04:41.378Z,36.23
2019-03-24T09:09:43.900Z,28.43
2019-03-24T09:14:46.283Z,32.63
2019-03-24T09:19:48.648Z,33.77
2019-03-24T09:24:51.017Z,30.83
2019-03-24T09:29:53.407Z,39.90
2019-03-24T09:34:55.857Z,37.40
2019-03-24T09:39:58.295Z,33.37
2019-03-24T09:45:00.722Z,37.17
2019-03-24T09:50:04.067Z,39.17
2019-03-24T09:55:06.568Z,42.57
2019-03-24T10:00:09.216Z,35.93
2019-03-24T10:05:12.240Z,36.97
2019-03-24T10:10:14.795Z,41.93
2019-03-24T10:15:17.187Z,40.43
2019-03-24T10:20:19.543Z,36.57
2019-03-24T10:25:21.915Z,39.60
2019-03-24T10:30:24.914Z,42.90
2019-03-24T10:35:27.268Z,40.60
2019-03-24T10:40:29.661Z,41.20
2019-03-24T10:45:32.092Z,76.20
2019-03-24T10:50:34.444Z,53.97
2019-03-24T10:55:36.830Z,40.60
2019-03-24T11:00:44.316Z,38.17
2019-03-24T11:05:46.686Z,41.60
2019-03-24T11:10:49.380Z,120.23
2019-03-24T11:15:51.748Z,37.40
2019-03-24T11:20:54.149Z,44.70
2019-03-24T11:25:56.620Z,38.60
2019-03-24T11:30:59.012Z,41.37
2019-03-24T11:36:01.364Z,45.13
2019-03-24T11:41:03.977Z,49.33
2019-03-24T11:46:06.364Z,41.77
2019-03-24T11:51:08.724Z,41.17
2019-03-24T11:56:11.138Z,39.60
2019-03-24T12:01:13.588Z,26.77
2019-03-24T12:06:15.960Z,31.97
2019-03-24T12:11:19.452Z,33.83
2019-03-24T12:16:22.118Z,35.40
2019-03-24T12:21:24.475Z,36.00
2019-03-24T12:26:26.863Z,35.50
2019-03-24T12:31:32.200Z,33.60
2019-03-24T12:36:34.669Z,37.00
2019-03-24T12:41:37.087Z,32.07
2019-03-24T12:46:39.518Z,35.87
2019-03-24T12:51:43.425Z,34.53
2019-03-24T12:56:45.813Z,38.37
2019-03-24T13:01:48.257Z,33.30
2019-03-24T13:06:50.623Z,34.97
2019-03-24T13:11:55.723Z,32.57
2019-03-24T13:16:58.181Z,33.97
2019-03-24T13:22:03.685Z,34.53
2019-03-24T13:27:06.167Z,32.10
2019-03-24T13:32:11.500Z,46.87
2019-03-24T13:37:13.884Z,32.03
2019-03-24T13:42:16.304Z,34.67
2019-03-24T13:47:21.687Z,32.40
2019-03-24T13:52:24.039Z,35.67
2019-03-24T13:57:29.397Z,27.37
2019-03-24T14:02:34.443Z,29.03
2019-03-24T14:07:36.795Z,26.80
2019-03-24T14:12:39.235Z,24.33
2019-03-24T14:17:42.702Z,25.60
2019-03-24T14:22:48.367Z,26.83
2019-03-24T14:27:50.876Z,31.13
2019-03-24T14:32:56.298Z,26.07
2019-03-24T14:38:01.444Z,24.53
2019-03-24T14:43:04.280Z,25.43
2019-03-24T14:48:06.699Z,24.10
2019-03-24T14:53:09.064Z,17.33
2019-03-24T14:58:12.856Z,22.73
2019-03-24T15:03:15.338Z,21.40
2019-03-24T15:08:17.731Z,22.97
2019-03-24T15:13:20.173Z,22.20
2019-03-24T15:18:22.659Z,26.23
2019-03-24T15:23:25.113Z,24.80
2019-03-24T15:28:30.477Z,21.83
2019-03-24T15:33:32.907Z,28.07
2019-03-24T15:38:38.180Z,24.00
2019-03-24T15:43:41.227Z,30.47
2019-03-24T15:48:50.214Z,26.87
2019-03-24T15:53:52.616Z,22.77
2019-03-24T15:58:55.091Z,22.47
2019-03-24T16:04:00.332Z,25.17
2019-03-24T16:09:05.848Z,25.77
2019-03-24T16:14:08.229Z,25.97
2019-03-24T16:19:10.728Z,30.47
2019-03-24T16:24:13.778Z,26.83
2019-03-24T16:29:16.462Z,22.63
2019-03-24T16:34:18.897Z,23.83
2019-03-24T16:39:21.274Z,28.93
2019-03-24T16:44:23.679Z,25.67
2019-03-24T16:49:26.047Z,27.80
2019-03-24T16:54:28.396Z,31.20
2019-03-24T16:59:30.941Z,29.10
2019-03-24T17:04:33.498Z,30.57
2019-03-24T17:09:35.831Z,35.60
2019-03-24T17:14:38.432Z,34.80
2019-03-24T17:19:40.823Z,32.03
2019-03-24T17:24:43.188Z,34.27
2019-03-24T17:29:45.743Z,34.87
2019-03-24T17:34:48.479Z,36.23
2019-03-24T17:39:51.004Z,32.00
2019-03-24T17:44:53.498Z,36.70
2019-03-24T17:49:55.882Z,34.90
2019-03-24T17:54:58.297Z,32.80
2019-03-24T18:00:00.747Z,33.03
2019-03-24T18:05:04.829Z,34.13
2019-03-24T18:10:08.540Z,35.73
2019-03-24T18:15:11.531Z,38.27
2019-03-24T18:20:19.547Z,36.20
2019-03-24T18:25:21.935Z,37.80
2019-03-24T18:30:26.549Z,37.77
2019-03-24T18:35:29.115Z,36.47
2019-03-24T18:40:31.594Z,38.13
2019-03-24T18:45:33.992Z,36.53
2019-03-24T18:50:37.479Z,34.17
2019-03-24T18:55:42.777Z,28.43
2019-03-24T19:00:45.351Z,17.53
2019-03-24T19:05:48.940Z,12.20
2019-03-24T19:10:51.518Z,14.53
2019-03-24T19:15:54.348Z,13.13
2019-03-24T19:20:56.724Z,13.80
2019-03-24T19:25:59.097Z,13.80
2019-03-24T19:31:02.009Z,10.67
2019-03-24T19:36:04.580Z,14.70
2019-03-24T19:41:06.937Z,10.93
2019-03-24T19:46:09.595Z,10.93
2019-03-24T19:51:11.984Z,8.33
2019-03-24T19:56:15.643Z,9.57
2019-03-24T20:01:19.432Z,11.53
2019-03-24T20:06:21.912Z,9.60
2019-03-24T20:11:24.292Z,15.73
2019-03-24T20:16:26.731Z,10.23
2019-03-24T20:21:29.228Z,15.23
2019-03-24T20:26:34.715Z,9.97
2019-03-24T20:31:37.243Z,9.37
2019-03-24T20:36:39.603Z,11.17
2019-03-24T20:41:43.069Z,11.10
2019-03-24T20:46:45.885Z,8.07
2019-03-24T20:51:48.264Z,9.20
2019-03-24T20:56:50.616Z,12.83
2019-03-24T21:01:56.243Z,12.43
2019-03-24T21:06:58.722Z,14.37
2019-03-24T21:12:01.284Z,8.87
2019-03-24T21:17:06.752Z,11.57
2019-03-24T21:22:09.211Z,15.40
2019-03-24T21:27:14.868Z,17.10
2019-03-24T21:32:17.275Z,12.93
2019-03-24T21:37:19.655Z,12.47
2019-03-24T21:42:22.072Z,11.03
2019-03-24T21:47:24.499Z,11.40
2019-03-24T21:52:26.856Z,15.30
2019-03-24T21:57:29.222Z,12.47
2019-03-24T22:02:31.607Z,10.63
2019-03-24T22:07:33.959Z,10.33
2019-03-24T22:12:36.376Z,13.27
2019-03-24T22:17:38.843Z,12.20
2019-03-24T22:22:41.237Z,20.90
2019-03-24T22:27:43.603Z,17.63
2019-03-24T22:32:46.271Z,18.23
2019-03-24T22:37:48.683Z,18.43
2019-03-24T22:42:51.093Z,13.90
2019-03-24T22:47:53.487Z,14.10
2019-03-24T22:52:57.068Z,15.03
2019-03-24T22:57:59.449Z,18.47
2019-03-24T23:03:01.842Z,18.60
2019-03-24T23:08:04.216Z,18.27
2019-03-24T23:13:06.576Z,14.93
2019-03-24T23:18:09.935Z,17.97
2019-03-24T23:23:12.452Z,14.63
2019-03-24T23:28:15.335Z,12.77
2019-03-24T23:33:18.611Z,15.60
2019-03-24T23:38:20.989Z,11.30
2019-03-24T23:43:23.396Z,14.13
2019-03-24T23:48:25.791Z,14.57
2019-03-24T23:53:28.364Z,17.90
2019-03-24T23:58:40.243Z,14.97
